Time;durP1;ratioP1;P1;durP2;ratioP2;P2;SDS_P1;SDS_P2;PMS_P1;PMS_P2;Temp;Humidity;BMP_temperature;BMP_pressure;BME280_temperature;BME280_humidity;BME280_pressure;Samples;Min_cycle;Max_cycle;Signal;HPM_P1;HPM_P2
2021/11/07 00:02:56;0.00;0.00;0.62;0.00;0.00;0.62;3.00;2.30;;;20.90;29.10;;;;;;2265977;61;20381;-59
2021/11/07 00:05:54;0.00;0.00;0.62;0.00;0.00;0.62;2.17;1.83;;;20.90;28.70;;;;;;2265244;61;20353;-58
2021/11/07 00:08:46;0.00;0.00;0.62;0.00;0.00;0.62;3.47;2.37;;;20.90;28.80;;;;;;2265380;61;20381;-57
2021/11/07 00:11:39;0.00;0.00;0.62;0.00;0.00;0.62;4.90;1.97;;;20.80;28.70;;;;;;2265446;61;20376;-59
2021/11/07 00:14:25;0.00;0.00;0.62;0.00;0.00;0.62;2.77;2.03;;;20.80;28.80;;;;;;2265741;61;20349;-59
2021/11/07 00:17:09;0.00;0.00;0.62;0.00;0.00;0.62;3.07;2.53;;;20.80;28.80;;;;;;2265646;61;20384;-59
2021/11/07 00:20:00;0.00;0.00;0.62;0.00;0.00;0.62;2.77;2.13;;;20.80;28.90;;;;;;2265460;61;20619;-57
2021/11/07 00:23:14;0.00;0.00;0.62;0.00;0.00;0.62;3.93;2.60;;;20.80;28.90;;;;;;2265297;61;20381;-55
2021/11/07 00:26:11;0.00;0.00;0.62;0.00;0.00;0.62;3.57;3.03;;;20.70;28.90;;;;;;2265942;61;20398;-59
2021/11/07 00:29:07;0.00;0.00;0.62;0.00;0.00;0.62;5.03;2.80;;;20.70;28.90;;;;;;2265600;61;20435;-58
2021/11/07 00:32:18;0.00;0.00;0.62;0.00;0.00;0.62;4.60;2.10;;;20.70;29.00;;;;;;2265614;61;20409;-58
2021/11/07 00:37:58;0.00;0.00;0.62;0.00;0.00;0.62;3.20;2.30;;;20.70;29.00;;;;;;2265365;61;20373;-57
2021/11/07 00:40:51;0.00;0.00;0.62;0.00;0.00;0.62;2.83;1.90;;;20.60;29.00;;;;;;2265353;61;20365;-57
2021/11/07 00:44:29;0.00;0.00;0.62;0.00;0.00;0.62;2.30;2.10;;;20.60;29.10;;;;;;2265603;61;20354;-57
2021/11/07 00:46:46;0.00;0.00;0.62;0.00;0.00;0.62;3.60;2.63;;;20.60;29.10;;;;;;2265481;61;20419;-59
2021/11/07 00:58:01;0.00;0.00;0.62;0.00;0.00;0.62;4.30;2.10;;;20.50;29.30;;;;;;2265510;61;20365;-58
2021/11/07 01:03:31;0.00;0.00;0.62;0.00;0.00;0.62;3.30;1.73;;;20.40;29.30;;;;;;2265593;61;20408;-57
2021/11/07 01:06:16;0.00;0.00;0.62;0.00;0.00;0.62;2.90;2.03;;;20.40;29.80;;;;;;2265555;61;20765;-57
2021/11/07 01:09:01;0.00;0.00;0.62;0.00;0.00;0.62;2.80;2.40;;;20.40;29.40;;;;;;2265642;61;20404;-58
2021/11/07 01:11:47;0.00;0.00;0.62;0.00;0.00;0.62;3.30;2.30;;;20.40;29.40;;;;;;2265400;61;20388;-57
2021/11/07 01:14:31;0.00;0.00;0.62;0.00;0.00;0.62;2.70;2.13;;;20.40;29.50;;;;;;2265557;61;20361;-56
2021/11/07 01:17:16;0.00;0.00;0.62;0.00;0.00;0.62;3.03;2.17;;;20.40;29.50;;;;;;2263337;61;20393;-59
2021/11/07 01:20:01;0.00;0.00;0.62;0.00;0.00;0.62;3.90;2.33;;;20.40;29.50;;;;;;2266120;61;20399;-59
2021/11/07 01:25:34;0.00;0.00;0.62;0.00;0.00;0.62;2.80;2.20;;;20.30;29.60;;;;;;2266080;61;20357;-59
2021/11/07 01:28:23;0.00;0.00;0.62;0.00;0.00;0.62;3.63;2.40;;;20.30;29.60;;;;;;2266180;61;20411;-60
2021/11/07 01:31:07;0.00;0.00;0.62;0.00;0.00;0.62;3.90;2.23;;;20.30;29.60;;;;;;2266011;61;20385;-59
2021/11/07 01:33:55;0.00;0.00;0.62;0.00;0.00;0.62;4.40;2.50;;;20.30;29.70;;;;;;2265769;61;20361;-59
2021/11/07 01:39:43;0.00;0.00;0.62;0.00;0.00;0.62;2.63;1.80;;;20.30;29.80;;;;;;2266286;61;20353;-59
2021/11/07 01:42:36;0.00;0.00;0.62;0.00;0.00;0.62;2.67;1.77;;;20.20;29.70;;;;;;2266326;61;20600;-58
2021/11/07 01:45:26;0.00;0.00;0.62;0.00;0.00;0.62;2.27;1.60;;;20.20;29.70;;;;;;2266272;61;20597;-60
2021/11/07 01:48:24;0.00;0.00;0.62;0.00;0.00;0.62;3.10;1.70;;;20.20;29.70;;;;;;2265960;61;20464;-59
2021/11/07 01:51:10;0.00;0.00;0.62;0.00;0.00;0.62;3.30;2.07;;;20.20;29.80;;;;;;2265368;61;20449;-58
2021/11/07 01:54:05;0.00;0.00;0.62;0.00;0.00;0.62;2.80;1.63;;;20.20;29.80;;;;;;2265924;61;20393;-58
2021/11/07 01:56:50;0.00;0.00;0.62;0.00;0.00;0.62;2.93;1.80;;;20.20;29.90;;;;;;2265800;61;20584;-58
2021/11/07 01:59:44;0.00;0.00;0.62;0.00;0.00;0.62;2.03;1.80;;;20.20;29.90;;;;;;2265115;61;20405;-58
2021/11/07 02:02:34;0.00;0.00;0.62;0.00;0.00;0.62;3.70;1.57;;;20.20;29.90;;;;;;2265963;61;20423;-59
2021/11/07 02:05:18;0.00;0.00;0.62;0.00;0.00;0.62;2.30;1.20;;;20.10;29.90;;;;;;2266163;61;20431;-58
2021/11/07 02:08:06;0.00;0.00;0.62;0.00;0.00;0.62;2.10;1.60;;;20.10;29.90;;;;;;2265975;61;20400;-59
2021/11/07 02:10:55;0.00;0.00;0.62;0.00;0.00;0.62;1.90;1.33;;;20.10;29.90;;;;;;2265941;61;20357;-58
2021/11/07 02:13:40;0.00;0.00;0.62;0.00;0.00;0.62;2.10;1.50;;;20.10;29.90;;;;;;2265698;61;20392;-58
2021/11/07 02:16:24;0.00;0.00;0.62;0.00;0.00;0.62;2.10;1.40;;;20.10;29.90;;;;;;2266225;61;20579;-60
2021/11/07 02:19:15;0.00;0.00;0.62;0.00;0.00;0.62;2.23;1.27;;;20.10;30.00;;;;;;2266131;61;20821;-58
2021/11/07 02:22:02;0.00;0.00;0.62;0.00;0.00;0.62;2.47;1.40;;;20.00;30.00;;;;;;2265871;61;20616;-58
2021/11/07 02:24:47;0.00;0.00;0.62;0.00;0.00;0.62;1.63;1.17;;;20.00;30.00;;;;;;2265940;61;20415;-58
2021/11/07 02:27:32;0.00;0.00;0.62;0.00;0.00;0.62;2.17;1.20;;;20.00;30.00;;;;;;2265986;61;20384;-61
2021/11/07 02:30:17;0.00;0.00;0.62;0.00;0.00;0.62;2.13;1.30;;;20.00;30.00;;;;;;2265898;61;20361;-58
2021/11/07 02:33:03;0.00;0.00;0.62;0.00;0.00;0.62;2.30;1.60;;;20.00;30.10;;;;;;2265592;61;20384;-57
2021/11/07 02:35:48;0.00;0.00;0.62;0.00;0.00;0.62;4.23;1.27;;;20.00;30.20;;;;;;2265528;61;20353;-59
2021/11/07 02:38:35;0.00;0.00;0.62;0.00;0.00;0.62;2.17;1.20;;;20.00;30.30;;;;;;2266286;61;20384;-58
2021/11/07 02:41:20;0.00;0.00;0.62;0.00;0.00;0.62;2.03;1.00;;;20.00;30.30;;;;;;2265432;61;20612;-58
2021/11/07 02:44:05;0.00;0.00;0.62;0.00;0.00;0.62;1.80;1.23;;;20.00;30.40;;;;;;2265675;61;20365;-58
2021/11/07 02:46:50;0.00;0.00;0.62;0.00;0.00;0.62;2.30;1.20;;;20.00;30.40;;;;;;2265974;61;20460;-57
2021/11/07 02:49:36;0.00;0.00;0.62;0.00;0.00;0.62;1.80;1.10;;;20.00;30.30;;;;;;2265879;61;20361;-59
2021/11/07 02:52:21;0.00;0.00;0.62;0.00;0.00;0.62;1.83;0.93;;;19.90;30.30;;;;;;2265973;61;20597;-59
2021/11/07 02:55:08;0.00;0.00;0.62;0.00;0.00;0.62;2.00;1.20;;;19.90;30.30;;;;;;2265794;61;20365;-60
2021/11/07 02:57:58;0.00;0.00;0.62;0.00;0.00;0.62;1.80;1.00;;;19.90;30.40;;;;;;2265581;61;20358;-59
2021/11/07 03:00:45;0.00;0.00;0.62;0.00;0.00;0.62;1.70;1.00;;;19.90;30.40;;;;;;2266189;61;20361;-58
2021/11/07 03:03:30;0.00;0.00;0.62;0.00;0.00;0.62;2.07;0.80;;;19.90;30.40;;;;;;2265866;61;20852;-58
2021/11/07 03:06:16;0.00;0.00;0.62;0.00;0.00;0.62;1.40;0.90;;;19.90;30.40;;;;;;2265155;61;20711;-58
2021/11/07 03:09:02;0.00;0.00;0.62;0.00;0.00;0.62;2.80;1.10;;;19.90;30.40;;;;;;2265799;61;20802;-58
2021/11/07 03:11:50;0.00;0.00;0.62;0.00;0.00;0.62;2.70;1.20;;;19.90;30.50;;;;;;2265819;61;20384;-58
2021/11/07 03:14:38;0.00;0.00;0.62;0.00;0.00;0.62;1.30;1.00;;;19.80;30.50;;;;;;2265793;61;20369;-58
2021/11/07 03:17:26;0.00;0.00;0.62;0.00;0.00;0.62;1.67;1.10;;;19.80;31.20;;;;;;2265773;61;20376;-58
2021/11/07 03:20:11;0.00;0.00;0.62;0.00;0.00;0.62;1.97;0.87;;;19.80;30.50;;;;;;2265377;61;20389;-57
2021/11/07 03:22:56;0.00;0.00;0.62;0.00;0.00;0.62;1.50;1.03;;;19.80;30.50;;;;;;2266200;61;20375;-61
2021/11/07 03:25:51;0.00;0.00;0.62;0.00;0.00;0.62;1.50;1.00;;;19.80;30.50;;;;;;2265393;61;20426;-59
2021/11/07 03:28:37;0.00;0.00;0.62;0.00;0.00;0.62;1.43;0.97;;;19.80;30.60;;;;;;2265680;61;20435;-57
2021/11/07 03:31:38;0.00;0.00;0.62;0.00;0.00;0.62;1.93;1.07;;;19.80;30.60;;;;;;2265637;61;20385;-60
2021/11/07 03:34:32;0.00;0.00;0.62;0.00;0.00;0.62;1.53;0.93;;;19.80;30.70;;;;;;2265753;61;20357;-60
2021/11/07 03:37:25;0.00;0.00;0.62;0.00;0.00;0.62;1.47;0.77;;;19.80;30.70;;;;;;2265767;61;20352;-59
2021/11/07 03:40:12;0.00;0.00;0.62;0.00;0.00;0.62;1.40;1.07;;;19.80;30.70;;;;;;2265663;61;20353;-60
2021/11/07 03:42:58;0.00;0.00;0.62;0.00;0.00;0.62;1.40;1.00;;;19.80;30.80;;;;;;2265322;61;20396;-59
2021/11/07 03:45:44;0.00;0.00;0.62;0.00;0.00;0.62;1.73;1.20;;;19.80;30.80;;;;;;2265631;61;20365;-60
2021/11/07 03:48:29;0.00;0.00;0.62;0.00;0.00;0.62;1.50;1.00;;;19.80;30.90;;;;;;2265075;61;20377;-60
2021/11/07 03:51:15;0.00;0.00;0.62;0.00;0.00;0.62;1.40;0.90;;;19.80;30.90;;;;;;2265029;61;20419;-60
2021/11/07 03:54:00;0.00;0.00;0.62;0.00;0.00;0.62;1.70;1.10;;;19.70;30.90;;;;;;2265715;61;20706;-60
2021/11/07 03:56:45;0.00;0.00;0.62;0.00;0.00;0.62;2.00;1.00;;;19.70;30.90;;;;;;2265351;61;20705;-59
2021/11/07 03:59:31;0.00;0.00;0.62;0.00;0.00;0.62;1.30;0.90;;;19.70;30.90;;;;;;2265579;61;20408;-59
2021/11/07 04:02:18;0.00;0.00;0.62;0.00;0.00;0.62;1.60;1.00;;;19.70;31.00;;;;;;2264991;61;20511;-60
2021/11/07 04:05:03;0.00;0.00;0.62;0.00;0.00;0.62;1.30;0.90;;;19.70;31.10;;;;;;2265384;61;20368;-59
2021/11/07 04:07:48;0.00;0.00;0.62;0.00;0.00;0.62;1.53;0.93;;;19.70;31.10;;;;;;2265333;61;20603;-60
2021/11/07 04:10:34;0.00;0.00;0.62;0.00;0.00;0.62;1.40;0.90;;;19.70;31.10;;;;;;2265397;61;20775;-59
2021/11/07 04:13:19;0.00;0.00;0.62;0.00;0.00;0.62;1.40;1.00;;;19.70;31.20;;;;;;2265367;61;20361;-60
2021/11/07 04:16:05;0.00;0.00;0.62;0.00;0.00;0.62;1.90;1.30;;;19.70;31.20;;;;;;2265607;61;20441;-60
2021/11/07 04:18:51;0.00;0.00;0.62;0.00;0.00;0.62;1.50;1.00;;;19.70;31.30;;;;;;2265422;61;20357;-60
2021/11/07 04:21:37;0.00;0.00;0.62;0.00;0.00;0.62;2.00;1.30;;;19.70;31.30;;;;;;2265529;61;20755;-60
2021/11/07 04:24:21;0.00;0.00;0.62;0.00;0.00;0.62;1.70;1.17;;;19.70;31.30;;;;;;2265637;61;20388;-59
2021/11/07 04:27:07;0.00;0.00;0.62;0.00;0.00;0.62;1.90;1.20;;;19.70;31.30;;;;;;2265019;61;20777;-59
2021/11/07 04:29:52;0.00;0.00;0.62;0.00;0.00;0.62;2.00;1.10;;;19.70;31.40;;;;;;2265455;61;20584;-60
2021/11/07 04:32:37;0.00;0.00;0.62;0.00;0.00;0.62;1.43;0.90;;;19.70;31.40;;;;;;2265593;61;20412;-60
2021/11/07 04:35:23;0.00;0.00;0.62;0.00;0.00;0.62;1.20;0.80;;;19.70;31.40;;;;;;2265313;61;20385;-60
2021/11/07 04:38:07;0.00;0.00;0.62;0.00;0.00;0.62;1.40;1.10;;;19.70;31.60;;;;;;2265636;61;20361;-59
2021/11/07 04:40:52;0.00;0.00;0.62;0.00;0.00;0.62;1.40;1.00;;;19.70;31.70;;;;;;2265258;61;20368;-59
2021/11/07 04:43:36;0.00;0.00;0.62;0.00;0.00;0.62;2.70;1.30;;;19.70;31.70;;;;;;2265457;61;20365;-58
2021/11/07 04:46:22;0.00;0.00;0.62;0.00;0.00;0.62;1.93;1.33;;;19.70;31.70;;;;;;2265618;61;20360;-59
2021/11/07 04:49:06;0.00;0.00;0.62;0.00;0.00;0.62;2.23;1.63;;;19.70;31.80;;;;;;2265117;61;20392;-59
2021/11/07 04:51:53;0.00;0.00;0.62;0.00;0.00;0.62;1.40;0.90;;;19.70;31.90;;;;;;2266239;61;20373;-58
2021/11/07 04:54:38;0.00;0.00;0.62;0.00;0.00;0.62;1.60;1.10;;;19.70;31.90;;;;;;2266271;61;20361;-59
2021/11/07 04:57:22;0.00;0.00;0.62;0.00;0.00;0.62;1.80;1.20;;;19.70;31.90;;;;;;2265765;61;20356;-59
2021/11/07 05:00:10;0.00;0.00;0.62;0.00;0.00;0.62;1.80;1.30;;;19.60;31.80;;;;;;2266159;61;20364;-59
2021/11/07 05:02:55;0.00;0.00;0.62;0.00;0.00;0.62;1.70;1.20;;;19.60;31.80;;;;;;2266001;61;20833;-59
2021/11/07 05:05:40;0.00;0.00;0.62;0.00;0.00;0.62;1.70;1.20;;;19.60;31.90;;;;;;2265872;61;20380;-58
2021/11/07 05:08:26;0.00;0.00;0.62;0.00;0.00;0.62;1.40;1.10;;;19.60;32.60;;;;;;2266174;61;20383;-60
2021/11/07 05:11:11;0.00;0.00;0.62;0.00;0.00;0.62;1.83;1.30;;;19.70;32.00;;;;;;2265138;61;20384;-58
2021/11/07 05:13:55;0.00;0.00;0.62;0.00;0.00;0.62;1.40;0.97;;;19.60;32.00;;;;;;2266223;61;20574;-58
2021/11/07 05:16:40;0.00;0.00;0.62;0.00;0.00;0.62;1.93;1.10;;;19.60;32.10;;;;;;2266145;61;20759;-58
2021/11/07 05:19:24;0.00;0.00;0.62;0.00;0.00;0.62;1.57;1.13;;;19.60;32.20;;;;;;2265549;61;20437;-57
2021/11/07 05:22:09;0.00;0.00;0.62;0.00;0.00;0.62;1.60;1.20;;;19.60;32.20;;;;;;2266163;61;20385;-57
2021/11/07 05:24:54;0.00;0.00;0.62;0.00;0.00;0.62;1.63;1.23;;;19.60;32.20;;;;;;2265978;61;20415;-58
2021/11/07 05:27:39;0.00;0.00;0.62;0.00;0.00;0.62;1.83;1.27;;;19.60;32.20;;;;;;2265797;61;20392;-57
2021/11/07 05:30:24;0.00;0.00;0.62;0.00;0.00;0.62;2.73;1.20;;;19.60;32.20;;;;;;2266075;61;20434;-57
2021/11/07 05:33:09;0.00;0.00;0.62;0.00;0.00;0.62;1.40;1.00;;;19.60;32.20;;;;;;2265521;61;20815;-58
2021/11/07 05:35:54;0.00;0.00;0.62;0.00;0.00;0.62;1.90;1.27;;;19.60;32.30;;;;;;2266176;61;20352;-58
2021/11/07 05:38:38;0.00;0.00;0.62;0.00;0.00;0.62;1.83;1.20;;;19.50;32.20;;;;;;2266105;61;20399;-58
2021/11/07 05:41:24;0.00;0.00;0.62;0.00;0.00;0.62;1.70;1.10;;;19.50;32.20;;;;;;2265439;61;20373;-58
2021/11/07 05:44:09;0.00;0.00;0.62;0.00;0.00;0.62;1.40;1.00;;;19.50;32.30;;;;;;2266171;61;20369;-58
2021/11/07 05:46:54;0.00;0.00;0.62;0.00;0.00;0.62;1.70;1.17;;;19.60;32.40;;;;;;2265891;61;20364;-57
2021/11/07 05:49:39;0.00;0.00;0.62;0.00;0.00;0.62;1.50;1.03;;;19.50;32.20;;;;;;2265616;61;20365;-58
2021/11/07 05:52:24;0.00;0.00;0.62;0.00;0.00;0.62;1.53;1.10;;;19.60;32.30;;;;;;2266133;61;20412;-58
2021/11/07 05:55:09;0.00;0.00;0.62;0.00;0.00;0.62;2.23;1.03;;;19.60;32.30;;;;;;2265778;61;20766;-58
2021/11/07 05:57:55;0.00;0.00;0.62;0.00;0.00;0.62;2.27;1.50;;;19.60;32.30;;;;;;2265746;61;20800;-58
2021/11/07 06:00:41;0.00;0.00;0.62;0.00;0.00;0.62;1.50;1.00;;;19.60;32.30;;;;;;2265490;61;20694;-58
2021/11/07 06:03:26;0.00;0.00;0.62;0.00;0.00;0.62;1.80;1.20;;;19.60;32.30;;;;;;2265107;61;20369;-60
2021/11/07 06:06:11;0.00;0.00;0.62;0.00;0.00;0.62;2.00;1.40;;;19.60;32.30;;;;;;2266059;61;20444;-57
2021/11/07 06:08:56;0.00;0.00;0.62;0.00;0.00;0.62;2.07;1.10;;;19.60;32.30;;;;;;2266029;61;20388;-58
2021/11/07 06:11:41;0.00;0.00;0.62;0.00;0.00;0.62;2.10;1.40;;;19.60;32.30;;;;;;2265555;61;20460;-60
2021/11/07 06:14:26;0.00;0.00;0.62;0.00;0.00;0.62;1.70;1.40;;;19.60;32.30;;;;;;2266085;61;20369;-58
2021/11/07 06:17:12;0.00;0.00;0.62;0.00;0.00;0.62;2.70;1.27;;;19.60;32.30;;;;;;2265727;61;20365;-60
2021/11/07 06:19:57;0.00;0.00;0.62;0.00;0.00;0.62;2.67;1.40;;;19.60;32.30;;;;;;2265951;61;20445;-60
2021/11/07 06:22:41;0.00;0.00;0.62;0.00;0.00;0.62;1.63;1.40;;;19.60;32.40;;;;;;2265955;61;20380;-57
2021/11/07 06:25:26;0.00;0.00;0.62;0.00;0.00;0.62;4.03;1.90;;;19.60;32.40;;;;;;2265438;61;20388;-60
2021/11/07 06:28:10;0.00;0.00;0.62;0.00;0.00;0.62;3.37;1.90;;;19.60;32.30;;;;;;2265985;61;20377;-60
2021/11/07 06:31:02;0.00;0.00;0.62;0.00;0.00;0.62;4.10;1.77;;;19.60;32.30;;;;;;2265765;61;20341;-56
2021/11/07 06:33:47;0.00;0.00;0.62;0.00;0.00;0.62;5.07;1.97;;;19.60;32.30;;;;;;2265277;61;20373;-58
2021/11/07 06:36:32;0.00;0.00;0.62;0.00;0.00;0.62;4.43;1.83;;;19.60;32.30;;;;;;2265890;61;20356;-58
2021/11/07 06:39:17;0.00;0.00;0.62;0.00;0.00;0.62;4.03;1.90;;;19.60;32.30;;;;;;2265678;61;20392;-57
2021/11/07 06:42:02;0.00;0.00;0.62;0.00;0.00;0.62;3.50;2.10;;;19.60;32.30;;;;;;2265802;61;20595;-60
2021/11/07 06:44:48;0.00;0.00;0.62;0.00;0.00;0.62;4.03;1.90;;;19.60;32.30;;;;;;2265850;61;20349;-59
2021/11/07 06:47:34;0.00;0.00;0.62;0.00;0.00;0.62;2.70;2.00;;;19.50;32.20;;;;;;2265220;61;20361;-59
2021/11/07 06:50:19;0.00;0.00;0.62;0.00;0.00;0.62;5.90;2.20;;;19.60;32.30;;;;;;2265793;61;20369;-59
2021/11/07 06:53:04;0.00;0.00;0.62;0.00;0.00;0.62;4.30;2.30;;;19.50;32.20;;;;;;2265880;61;20409;-59
2021/11/07 06:55:49;0.00;0.00;0.62;0.00;0.00;0.62;5.13;1.70;;;19.50;32.20;;;;;;2265356;61;20357;-59
2021/11/07 06:58:34;0.00;0.00;0.62;0.00;0.00;0.62;7.33;2.13;;;19.50;32.20;;;;;;2265899;61;20428;-59
2021/11/07 07:01:18;0.00;0.00;0.62;0.00;0.00;0.62;5.03;1.77;;;19.50;32.20;;;;;;2265534;61;20422;-59
2021/11/07 07:04:05;0.00;0.00;0.62;0.00;0.00;0.62;3.10;2.10;;;19.50;32.20;;;;;;2265582;61;20426;-58
2021/11/07 07:06:49;0.00;0.00;0.62;0.00;0.00;0.62;6.07;2.13;;;19.50;32.30;;;;;;2265772;61;20456;-57
2021/11/07 07:09:43;0.00;0.00;0.62;0.00;0.00;0.62;3.57;2.00;;;19.50;32.30;;;;;;2265148;61;20397;-59
2021/11/07 07:15:38;0.00;0.00;0.62;0.00;0.00;0.62;4.27;2.10;;;19.50;32.20;;;;;;2265861;61;20591;-61
2021/11/07 07:36:10;0.00;0.00;0.62;0.00;0.00;0.62;4.50;2.00;;;19.50;32.20;;;;;;2265399;61;20573;-60
2021/11/07 07:38:57;0.00;0.00;0.62;0.00;0.00;0.62;4.00;2.53;;;19.50;32.20;;;;;;2265316;61;20606;-62
2021/11/07 07:41:42;0.00;0.00;0.62;0.00;0.00;0.62;5.50;2.20;;;19.50;32.20;;;;;;2265711;61;20415;-61
2021/11/07 07:44:27;0.00;0.00;0.62;0.00;0.00;0.62;9.30;2.50;;;19.50;32.30;;;;;;2265874;61;20403;-61
2021/11/07 07:47:12;0.00;0.00;0.62;0.00;0.00;0.62;5.60;2.67;;;19.50;32.20;;;;;;2265269;61;20475;-61
2021/11/07 07:49:57;0.00;0.00;0.62;0.00;0.00;0.62;9.10;2.40;;;19.40;32.20;;;;;;2265575;61;20361;-60
2021/11/07 07:52:43;0.00;0.00;0.62;0.00;0.00;0.62;4.83;2.47;;;19.40;32.30;;;;;;2265489;61;20449;-60
2021/11/07 07:55:28;0.00;0.00;0.62;0.00;0.00;0.62;6.10;2.73;;;19.40;32.30;;;;;;2265377;61;20361;-61
2021/11/07 07:58:12;0.00;0.00;0.62;0.00;0.00;0.62;5.40;1.90;;;19.40;32.40;;;;;;2265305;61;20631;-59
2021/11/07 08:00:57;0.00;0.00;0.62;0.00;0.00;0.62;3.30;2.33;;;19.40;32.40;;;;;;2265302;61;20357;-59
2021/11/07 08:03:41;0.00;0.00;0.62;0.00;0.00;0.62;8.97;3.07;;;19.40;32.50;;;;;;2265827;61;20379;-56
2021/11/07 08:06:26;0.00;0.00;0.62;0.00;0.00;0.62;5.23;2.73;;;19.40;32.50;;;;;;2265661;61;20550;-61
2021/11/07 08:09:12;0.00;0.00;0.62;0.00;0.00;0.62;4.13;2.03;;;19.40;32.60;;;;;;2264971;61;20789;-60
2021/11/07 08:11:57;0.00;0.00;0.62;0.00;0.00;0.62;7.00;2.30;;;19.40;32.50;;;;;;2265629;61;20613;-59
2021/11/07 08:14:42;0.00;0.00;0.62;0.00;0.00;0.62;4.60;2.23;;;19.40;32.60;;;;;;2265706;61;20361;-59
2021/11/07 08:17:27;0.00;0.00;0.62;0.00;0.00;0.62;9.23;2.93;;;19.40;32.50;;;;;;2265246;61;20718;-58
2021/11/07 08:20:13;0.00;0.00;0.62;0.00;0.00;0.62;6.03;2.70;;;19.40;32.60;;;;;;2271863;58;20396;-60
2021/11/07 08:22:58;0.00;0.00;0.62;0.00;0.00;0.62;3.40;2.33;;;19.40;32.60;;;;;;2708506;45;20688;-61
2021/11/07 08:25:45;0.00;0.00;0.62;0.00;0.00;0.62;6.00;2.50;;;19.40;32.60;;;;;;2264953;61;20414;-58
2021/11/07 08:28:31;0.00;0.00;0.62;0.00;0.00;0.62;7.13;2.33;;;19.40;32.60;;;;;;2265453;61;20384;-59
2021/11/07 08:31:23;0.00;0.00;0.62;0.00;0.00;0.62;5.47;2.07;;;19.40;32.70;;;;;;2265432;61;20396;-60
2021/11/07 08:34:08;0.00;0.00;0.62;0.00;0.00;0.62;3.03;1.90;;;19.40;32.60;;;;;;2266339;61;20376;-62
2021/11/07 08:37:13;0.00;0.00;0.62;0.00;0.00;0.62;3.30;1.80;;;19.50;32.70;;;;;;2634668;45;20619;-61
2021/11/07 08:39:59;0.00;0.00;0.62;0.00;0.00;0.62;3.90;1.70;;;19.50;32.80;;;;;;2508205;53;20427;-60
2021/11/07 08:42:50;0.00;0.00;0.62;0.00;0.00;0.62;3.53;1.87;;;19.50;33.40;;;;;;2261876;61;20753;-61
2021/11/07 09:00:48;0.00;0.00;0.62;0.00;0.00;0.62;5.00;1.57;;;19.80;32.60;;;;;;2265195;61;20476;-61
2021/11/07 09:09:26;0.00;0.00;0.62;0.00;0.00;0.62;3.50;1.60;;;19.90;32.50;;;;;;2265764;61;20381;-61
2021/11/07 09:12:12;0.00;0.00;0.62;0.00;0.00;0.62;3.03;1.43;;;19.90;32.30;;;;;;2266240;61;20429;-59
2021/11/07 09:14:57;0.00;0.00;0.62;0.00;0.00;0.62;2.23;1.47;;;19.90;32.30;;;;;;2265943;61;20677;-60
2021/11/07 09:17:44;0.00;0.00;0.62;0.00;0.00;0.62;2.47;1.80;;;20.00;32.30;;;;;;2266254;61;20361;-59
2021/11/07 09:23:32;0.00;0.00;0.62;0.00;0.00;0.62;3.10;1.40;;;20.00;32.20;;;;;;2265605;61;20380;-60
2021/11/07 09:26:31;0.00;0.00;0.62;0.00;0.00;0.62;4.43;1.83;;;20.10;32.20;;;;;;2266171;61;20403;-59
2021/11/07 09:35:25;0.00;0.00;0.62;0.00;0.00;0.62;3.53;1.43;;;20.10;32.10;;;;;;2265899;61;20547;-61
2021/11/07 09:38:23;0.00;0.00;0.62;0.00;0.00;0.62;1.53;1.07;;;20.20;32.10;;;;;;2265614;61;20393;-61
2021/11/07 09:44:04;0.00;0.00;0.62;0.00;0.00;0.62;2.80;1.33;;;20.20;32.00;;;;;;2265939;61;20360;-59
2021/11/07 09:47:01;0.00;0.00;0.62;0.00;0.00;0.62;3.23;1.80;;;20.20;32.00;;;;;;2265803;61;20372;-61
2021/11/07 09:49:49;0.00;0.00;0.62;0.00;0.00;0.62;2.30;1.37;;;20.20;32.00;;;;;;2265902;61;20381;-61
2021/11/07 09:52:43;0.00;0.00;0.62;0.00;0.00;0.62;2.23;1.10;;;20.30;32.10;;;;;;2265511;61;20396;-60
2021/11/07 09:55:29;0.00;0.00;0.62;0.00;0.00;0.62;1.87;1.17;;;20.30;32.00;;;;;;2266022;61;20361;-60
2021/11/07 09:58:15;0.00;0.00;0.62;0.00;0.00;0.62;1.77;1.10;;;20.40;32.10;;;;;;2266122;61;20422;-59
2021/11/07 10:01:00;0.00;0.00;0.62;0.00;0.00;0.62;6.20;1.40;;;20.40;32.10;;;;;;2265540;61;20363;-59
2021/11/07 10:03:46;0.00;0.00;0.62;0.00;0.00;0.62;1.87;1.23;;;20.40;32.00;;;;;;2266220;61;20761;-59
2021/11/07 10:06:42;0.00;0.00;0.62;0.00;0.00;0.62;1.60;1.07;;;20.40;31.90;;;;;;2265814;61;20400;-60
2021/11/07 10:09:37;0.00;0.00;0.62;0.00;0.00;0.62;1.80;1.10;;;20.40;31.90;;;;;;2265863;61;20406;-59
2021/11/07 10:12:35;0.00;0.00;0.62;0.00;0.00;0.62;2.50;1.60;;;20.50;32.00;;;;;;2266161;61;20385;-59
2021/11/07 10:15:27;0.00;0.00;0.62;0.00;0.00;0.62;2.50;1.30;;;20.50;31.90;;;;;;2265401;61;20396;-60
2021/11/07 10:18:26;0.00;0.00;0.62;0.00;0.00;0.62;1.97;1.47;;;20.50;31.90;;;;;;2266054;61;20353;-59
2021/11/07 10:21:20;0.00;0.00;0.62;0.00;0.00;0.62;3.57;1.57;;;20.60;32.00;;;;;;2265625;61;20412;-61
2021/11/07 10:24:09;0.00;0.00;0.62;0.00;0.00;0.62;1.93;1.10;;;20.60;32.00;;;;;;2265971;61;20577;-61
2021/11/07 10:27:00;0.00;0.00;0.62;0.00;0.00;0.62;1.70;1.30;;;20.60;31.90;;;;;;2265976;61;20357;-60
2021/11/07 10:29:48;0.00;0.00;0.62;0.00;0.00;0.62;2.27;1.10;;;20.70;32.00;;;;;;2265264;61;20385;-59
2021/11/07 10:32:42;0.00;0.00;0.62;0.00;0.00;0.62;2.27;1.37;;;20.70;31.90;;;;;;2265917;61;20426;-59
2021/11/07 10:36:08;0.00;0.00;0.62;0.00;0.00;0.62;2.10;1.03;;;20.70;31.80;;;;;;2265738;61;20396;-61
2021/11/07 10:39:13;0.00;0.00;0.62;0.00;0.00;0.62;1.70;1.10;;;20.70;31.90;;;;;;2265799;61;20641;-59
2021/11/07 10:48:12;0.00;0.00;0.62;0.00;0.00;0.62;2.73;1.60;;;20.80;31.70;;;;;;2265668;61;20393;-59
2021/11/07 10:54:16;0.00;0.00;0.62;0.00;0.00;0.62;3.10;1.33;;;20.90;31.80;;;;;;2265929;61;20358;-59
2021/11/07 10:57:19;0.00;0.00;0.62;0.00;0.00;0.62;2.57;1.20;;;20.90;31.70;;;;;;2265885;61;20400;-59
2021/11/07 11:00:21;0.00;0.00;0.62;0.00;0.00;0.62;2.00;1.30;;;20.90;31.70;;;;;;2265422;61;20361;-59
2021/11/07 11:03:08;0.00;0.00;0.62;0.00;0.00;0.62;1.80;1.40;;;20.90;31.60;;;;;;2265862;61;20407;-61
2021/11/07 11:06:04;0.00;0.00;0.62;0.00;0.00;0.62;2.53;1.43;;;20.90;31.60;;;;;;2265622;61;20401;-59
2021/11/07 11:08:55;0.00;0.00;0.62;0.00;0.00;0.62;1.87;1.10;;;20.90;31.60;;;;;;2265892;61;20372;-59
2021/11/07 11:11:54;0.00;0.00;0.62;0.00;0.00;0.62;1.73;1.20;;;21.00;31.70;;;;;;2265728;61;20400;-61
2021/11/07 11:14:42;0.00;0.00;0.62;0.00;0.00;0.62;2.43;1.40;;;21.00;31.60;;;;;;2265320;61;20387;-58
2021/11/07 11:17:42;0.00;0.00;0.62;0.00;0.00;0.62;3.27;1.27;;;21.00;31.60;;;;;;2265835;61;20360;-59
2021/11/07 11:20:40;0.00;0.00;0.62;0.00;0.00;0.62;2.63;1.20;;;21.10;31.60;;;;;;2265460;61;20389;-61
2021/11/07 11:23:44;0.00;0.00;0.62;0.00;0.00;0.62;2.23;1.50;;;21.10;31.60;;;;;;2265802;61;20620;-60
2021/11/07 11:29:38;0.00;0.00;0.62;0.00;0.00;0.62;2.30;1.40;;;21.10;31.50;;;;;;2265008;61;20781;-60
2021/11/07 11:32:41;0.00;0.00;0.62;0.00;0.00;0.62;2.27;1.10;;;21.10;31.50;;;;;;2265767;61;20419;-61
2021/11/07 11:38:20;0.00;0.00;0.62;0.00;0.00;0.62;5.77;1.50;;;21.20;31.50;;;;;;2265791;61;20376;-60
2021/11/07 11:41:10;0.00;0.00;0.62;0.00;0.00;0.62;3.53;1.50;;;21.20;31.50;;;;;;2265600;61;20391;-60
2021/11/07 11:43:55;0.00;0.00;0.62;0.00;0.00;0.62;3.90;2.30;;;21.30;31.60;;;;;;2265210;61;20404;-61
2021/11/07 11:46:57;0.00;0.00;0.62;0.00;0.00;0.62;3.33;1.60;;;21.30;31.60;;;;;;2265738;61;20376;-59
2021/11/07 11:56:20;0.00;0.00;0.62;0.00;0.00;0.62;2.80;1.70;;;21.30;31.50;;;;;;2265678;61;20352;-61
2021/11/07 11:59:26;0.00;0.00;0.62;0.00;0.00;0.62;2.40;1.60;;;21.40;31.60;;;;;;2265114;61;20423;-58
2021/11/07 12:02:20;0.00;0.00;0.62;0.00;0.00;0.62;7.17;1.90;;;21.40;31.60;;;;;;2265673;61;20377;-61
2021/11/07 12:05:28;0.00;0.00;0.62;0.00;0.00;0.62;2.80;2.00;;;21.50;31.50;;;;;;2265453;61;20357;-60
2021/11/07 12:08:34;0.00;0.00;0.62;0.00;0.00;0.62;3.30;2.00;;;21.50;31.60;;;;;;2265644;61;20385;-59
2021/11/07 12:11:36;0.00;0.00;0.62;0.00;0.00;0.62;4.23;2.20;;;21.50;31.50;;;;;;2265152;61;20393;-60
2021/11/07 12:14:30;0.00;0.00;0.62;0.00;0.00;0.62;2.83;1.80;;;21.60;31.60;;;;;;2265050;61;20399;-60
2021/11/07 12:17:27;0.00;0.00;0.62;0.00;0.00;0.62;4.40;2.80;;;21.60;31.60;;;;;;2265316;61;20709;-61
2021/11/07 12:20:25;0.00;0.00;0.62;0.00;0.00;0.62;6.60;2.97;;;21.70;31.70;;;;;;2264914;61;20525;-59
2021/11/07 12:23:21;0.00;0.00;0.62;0.00;0.00;0.62;5.97;2.30;;;21.70;31.70;;;;;;2265645;61;20447;-60
2021/11/07 12:26:22;0.00;0.00;0.62;0.00;0.00;0.62;5.23;2.40;;;21.70;31.60;;;;;;2265202;61;20365;-59
2021/11/07 12:29:06;0.00;0.00;0.62;0.00;0.00;0.62;3.20;2.60;;;21.80;31.70;;;;;;2264940;61;20395;-60
2021/11/07 12:31:59;0.00;0.00;0.62;0.00;0.00;0.62;4.30;2.30;;;21.80;31.60;;;;;;2265354;61;20412;-62
2021/11/07 12:35:08;0.00;0.00;0.62;0.00;0.00;0.62;6.40;2.60;;;21.90;31.70;;;;;;2265534;61;20403;-60
2021/11/07 12:41:04;0.00;0.00;0.62;0.00;0.00;0.62;2.70;2.10;;;21.90;31.50;;;;;;2265695;61;20585;-61
2021/11/07 12:43:52;0.00;0.00;0.62;0.00;0.00;0.62;3.10;2.17;;;22.00;31.70;;;;;;2265539;61;20384;-61
2021/11/07 12:49:29;0.00;0.00;0.62;0.00;0.00;0.62;3.17;2.30;;;22.00;31.60;;;;;;2265155;61;20443;-61